San Fermin Berria — EBVW — position and weather

sailwx.info

Track history (hours):
 
Tides and Currents Weather Stations Pressure Air Temp Water Temp Dewpoint Dewpoint Depression Visibility Wind Speed Wind Dir Waves Ship Positions

San Fermin Berria

Last reported at 2015-May-25 07:33 UTC. Time now 2015-May-25 21:35 UTC.
Position N 43°24' W 001°52'.

Length 30 m.

Type: Fishing. MMSI: 224114650.

Date/timePositionNaut miles runAvg speedWind from/ knotsBaromVisibWave heightAir tempDewpointWater temp
2015-May-25 07:33N 43°24' W 001°52'3 3.1
2015-May-25 06:33N 43°23' W 001°48'  
2015-May-22 10:33N 43°23' W 001°48'0 0.0
2015-May-22 09:33N 43°23' W 001°48'6 0.1
2015-May-20 16:12N 43°25' W 001°55'6 8.9
2015-May-20 15:33N 43°24' W 001°47'1 0.8
2015-May-20 14:33N 43°23' W 001°48'0 0.0
2015-May-20 07:33N 43°23' W 001°48'0 0.0
2015-May-20 06:33N 43°23' W 001°48'0 0.0
2015-May-20 05:33N 43°23' W 001°48'0 0.0
2015-May-20 04:33N 43°23' W 001°48'0 0.0
2015-May-20 03:33N 43°23' W 001°48'0 0.0
2015-May-20 02:33N 43°23' W 001°48'1 1.3
2015-May-20 01:33N 43°25' W 001°48'3 3.1
2015-May-20 00:32N 43°27' W 001°50'0 0.1
2015-May-19 23:33N 43°27' W 001°50'4 3.6
2015-May-19 22:33N 43°24' W 001°47'1 0.6
2015-May-19 21:33N 43°25' W 001°48'8 0.9
2015-May-19 12:22N 43°24' W 001°59'8 0.2
2015-May-17 22:33N 43°25' W 001°48'  
Track history (hours):
 
Tides and Currents Weather Stations Pressure Air Temp Water Temp Dewpoint Dewpoint Depression Visibility Wind Speed Wind Dir Waves Ship Positions

San Fermin Berria

Last reported at 2015-May-25 07:33 UTC. Time now 2015-May-25 21:35 UTC.
Position N 43°24' W 001°52'.

Length 30 m.

Type: Fishing. MMSI: 224114650.

Date/timePositionNaut miles runAvg speedWind from/ knotsBaromVisibWave heightAir tempDewpointWater temp
2015-May-25 07:33N 43°24' W 001°52'3 3.1
2015-May-25 06:33N 43°23' W 001°48'  
2015-May-22 10:33N 43°23' W 001°48'0 0.0
2015-May-22 09:33N 43°23' W 001°48'6 0.1
2015-May-20 16:12N 43°25' W 001°55'6 8.9
2015-May-20 15:33N 43°24' W 001°47'1 0.8
2015-May-20 14:33N 43°23' W 001°48'0 0.0
2015-May-20 07:33N 43°23' W 001°48'0 0.0
2015-May-20 06:33N 43°23' W 001°48'0 0.0
2015-May-20 05:33N 43°23' W 001°48'0 0.0
2015-May-20 04:33N 43°23' W 001°48'0 0.0
2015-May-20 03:33N 43°23' W 001°48'0 0.0
2015-May-20 02:33N 43°23' W 001°48'1 1.3
2015-May-20 01:33N 43°25' W 001°48'3 3.1
2015-May-20 00:32N 43°27' W 001°50'0 0.1
2015-May-19 23:33N 43°27' W 001°50'4 3.6
2015-May-19 22:33N 43°24' W 001°47'1 0.6
2015-May-19 21:33N 43°25' W 001°48'8 0.9
2015-May-19 12:22N 43°24' W 001°59'8 0.2
2015-May-17 22:33N 43°25' W 001°48'  

Dump ship's entire track history